Time;durP1;ratioP1;P1;durP2;ratioP2;P2;SDS_P1;SDS_P2;PMS_P1;PMS_P2;Temp;Humidity;BMP_temperature;BMP_pressure;BME280_temperature;BME280_humidity;BME280_pressure;Samples;Min_cycle;Max_cycle;Signal;HPM_P1;HPM_P2
2021/06/08 00:02:54;;;;;;;22.70;19.63;;;;;;;20.49;66.63;98327.59;8413735;28;20496;-83
2021/06/08 00:06:57;;;;;;;24.63;19.70;;;;;;;20.49;66.60;98332.84;8398621;28;20232;-83
2021/06/08 00:11:01;;;;;;;22.00;19.67;;;;;;;20.53;66.46;98325.56;8381732;28;20226;-83
2021/06/08 00:15:05;;;;;;;23.07;20.77;;;;;;;20.43;66.72;98323.66;8382006;28;20218;-86
2021/06/08 00:19:07;;;;;;;23.57;20.70;;;;;;;20.34;67.01;98316.50;8381515;28;20200;-86
2021/06/08 00:23:10;;;;;;;23.60;20.10;;;;;;;20.44;66.45;98314.78;8381325;28;20204;-86
2021/06/08 00:27:14;;;;;;;23.33;20.93;;;;;;;20.43;66.57;98309.69;8381241;28;20212;-85
2021/06/08 00:31:16;;;;;;;22.97;20.57;;;;;;;20.35;67.05;98319.94;8381489;28;20234;-86
2021/06/08 00:35:19;;;;;;;23.50;20.97;;;;;;;20.41;66.69;98314.19;8409141;28;20284;-85
2021/06/08 00:39:22;;;;;;;24.53;21.97;;;;;;;20.25;67.61;98311.94;8413866;28;20203;-85
2021/06/08 00:43:25;;;;;;;26.70;21.90;;;;;;;20.35;66.94;98306.81;8413324;28;20196;-85
2021/06/08 00:47:28;;;;;;;26.33;22.70;;;;;;;20.28;66.83;98307.28;8413466;28;20241;-84
2021/06/08 00:51:30;;;;;;;24.60;22.10;;;;;;;20.24;66.69;98300.59;8414012;28;20412;-85
2021/06/08 00:55:33;;;;;;;26.23;23.43;;;;;;;20.27;67.15;98299.50;8416578;28;20203;-84
2021/06/08 00:59:37;;;;;;;25.47;22.87;;;;;;;20.29;66.98;98301.06;8413832;28;20246;-84
2021/06/08 01:03:40;;;;;;;25.20;22.70;;;;;;;20.23;66.60;98296.28;8413505;28;20208;-84
2021/06/08 01:07:43;;;;;;;25.33;22.63;;;;;;;20.24;66.49;98287.47;8412846;28;20238;-85
2021/06/08 01:11:46;;;;;;;28.80;23.27;;;;;;;20.17;67.17;98294.16;8415554;28;20219;-84
2021/06/08 01:15:50;;;;;;;26.63;23.93;;;;;;;20.26;66.55;98290.81;8419438;28;20494;-84
2021/06/08 01:19:55;;;;;;;25.50;22.90;;;;;;;20.23;66.86;98290.19;8418883;28;20309;-85
2021/06/08 01:23:59;;;;;;;28.30;24.17;;;;;;;20.18;66.63;98290.56;8419473;28;20204;-84
2021/06/08 01:28:02;;;;;;;26.37;23.67;;;;;;;20.22;66.62;98291.16;8418673;28;20194;-85
2021/06/08 01:32:05;;;;;;;26.20;23.50;;;;;;;20.24;66.85;98294.53;8419057;28;20430;-85
2021/06/08 01:36:09;;;;;;;25.83;23.07;;;;;;;20.27;66.50;98294.25;8418207;28;20199;-84
2021/06/08 01:40:16;;;;;;;26.13;23.43;;;;;;;20.22;66.63;98294.63;8418423;28;20212;-85
2021/06/08 01:44:19;;;;;;;25.07;22.57;;;;;;;20.24;66.84;98299.78;8418431;28;20207;-84
2021/06/08 01:48:22;;;;;;;25.60;22.73;;;;;;;20.21;67.03;98303.47;8418071;28;20200;-84
2021/06/08 01:52:34;;;;;;;26.07;23.03;;;;;;;20.22;66.84;98291.16;8418477;28;20228;-84
2021/06/08 01:56:41;;;;;;;26.23;23.53;;;;;;;20.14;66.93;98302.25;8418285;28;20206;-84
2021/06/08 02:00:47;;;;;;;27.00;24.07;;;;;;;20.09;67.33;98299.19;8419687;28;20199;-84
2021/06/08 02:04:53;;;;;;;26.30;22.63;;;;;;;20.22;66.53;98299.03;8420216;28;20197;-84
2021/06/08 02:09:01;;;;;;;25.80;23.13;;;;;;;20.21;66.44;98294.75;8420862;28;20236;-84
2021/06/08 02:13:14;;;;;;;25.17;22.60;;;;;;;20.16;66.72;98286.38;8417488;28;20230;-84
2021/06/08 02:17:21;;;;;;;25.87;23.27;;;;;;;20.09;66.77;98299.19;8417247;28;20191;-84
2021/06/08 02:21:27;;;;;;;27.03;24.23;;;;;;;20.00;67.01;98295.47;8416663;28;20204;-84
2021/06/08 02:25:31;;;;;;;25.20;22.70;;;;;;;20.02;67.24;98290.91;8416245;28;20404;-84
2021/06/08 02:29:36;;;;;;;26.47;23.77;;;;;;;20.02;66.84;98293.56;8416940;28;20199;-84
2021/06/08 02:33:39;;;;;;;27.67;23.47;;;;;;;19.97;67.17;98300.13;8416380;28;20235;-85
2021/06/08 02:37:41;;;;;;;25.87;23.20;;;;;;;19.99;67.00;98300.84;8416763;28;20275;-85
2021/06/08 02:41:44;;;;;;;28.67;25.57;;;;;;;19.92;67.07;98308.38;8416414;28;20225;-85
2021/06/08 02:45:49;;;;;;;26.13;23.43;;;;;;;19.98;66.92;98301.81;8415877;28;20207;-84
2021/06/08 02:49:52;;;;;;;26.77;24.03;;;;;;;19.95;67.21;98307.28;8415990;28;20201;-85
2021/06/08 02:53:56;;;;;;;28.57;24.27;;;;;;;19.92;67.07;98311.00;8415567;28;20232;-84
2021/06/08 02:57:59;;;;;;;25.20;22.57;;;;;;;19.94;67.20;98316.16;8415588;28;20199;-83
2021/06/08 03:02:05;;;;;;;24.33;21.73;;;;;;;19.97;66.95;98322.00;8415114;28;20195;-84
2021/06/08 03:06:10;;;;;;;28.57;23.93;;;;;;;19.91;66.84;98320.69;8415175;28;20231;-83
2021/06/08 03:10:14;;;;;;;26.87;23.63;;;;;;;19.92;67.08;98326.78;8415109;28;20199;-83
2021/06/08 03:14:19;;;;;;;25.53;22.83;;;;;;;19.93;66.72;98328.44;8415147;28;20268;-83
2021/06/08 03:18:26;;;;;;;26.97;24.07;;;;;;;19.87;67.17;98335.00;8414911;28;20209;-83
2021/06/08 03:22:29;;;;;;;27.10;24.20;;;;;;;19.86;66.96;98332.50;8414842;28;20214;-84
2021/06/08 03:26:35;;;;;;;25.87;23.27;;;;;;;19.90;66.86;98336.56;8414804;28;20200;-84
2021/06/08 03:30:38;;;;;;;27.00;23.77;;;;;;;19.84;67.07;98337.03;8414989;28;20494;-83
2021/06/08 03:34:43;;;;;;;27.13;24.33;;;;;;;19.79;67.28;98347.06;8414298;28;20271;-84
2021/06/08 03:38:45;;;;;;;26.97;23.37;;;;;;;19.79;67.24;98341.81;8418061;28;20190;-83
2021/06/08 03:42:49;;;;;;;28.20;25.20;;;;;;;19.85;67.27;98347.41;8414477;28;20203;-83
2021/06/08 03:46:52;;;;;;;25.83;22.00;;;;;;;19.92;66.68;98348.63;8414161;28;20205;-83
2021/06/08 03:50:56;;;;;;;27.17;23.10;;;;;;;19.89;66.75;98353.28;8414485;28;20226;-83
2021/06/08 03:54:58;;;;;;;26.97;24.03;;;;;;;19.88;66.74;98356.88;8414203;28;20216;-86
2021/06/08 03:59:01;;;;;;;28.53;25.37;;;;;;;19.88;66.92;98355.06;8414315;28;20206;-86
2021/06/08 04:03:04;;;;;;;29.07;23.93;;;;;;;19.84;67.73;98358.06;8414190;28;20203;-85
2021/06/08 04:07:08;;;;;;;27.20;24.57;;;;;;;19.95;67.00;98351.97;8414334;28;20292;-85
2021/06/08 04:11:11;;;;;;;26.50;23.27;;;;;;;20.02;66.67;98358.44;8414598;28;20223;-86
2021/06/08 04:15:14;;;;;;;27.00;24.03;;;;;;;20.06;66.71;98362.50;8414386;28;20199;-85
2021/06/08 04:19:16;;;;;;;27.97;24.93;;;;;;;20.09;66.44;98364.91;8414092;28;20199;-85
2021/06/08 04:23:25;;;;;;;28.63;23.70;;;;;;;20.14;66.63;98362.72;8414467;28;20203;-85
2021/06/08 04:27:29;;;;;;;27.97;25.07;;;;;;;20.10;66.50;98369.19;8414761;28;20203;-85
2021/06/08 04:31:32;;;;;;;29.07;26.20;;;;;;;20.08;66.63;98371.09;8413909;28;20235;-84
2021/06/08 04:35:34;;;;;;;29.30;26.17;;;;;;;20.09;66.82;98370.16;8414103;28;20395;-83
2021/06/08 04:39:40;;;;;;;28.53;25.67;;;;;;;20.22;66.42;98370.03;8414165;28;20203;-83
2021/06/08 04:43:42;;;;;;;30.60;27.37;;;;;;;20.19;66.47;98375.53;8413383;28;20218;-84
2021/06/08 04:47:45;;;;;;;30.37;27.00;;;;;;;20.24;66.42;98373.41;8417206;28;20228;-84
2021/06/08 04:51:48;;;;;;;29.77;26.00;;;;;;;20.38;66.30;98369.69;8419593;28;20246;-84
2021/06/08 04:55:52;;;;;;;32.17;27.27;;;;;;;20.42;66.23;98377.22;8419611;28;20226;-85
2021/06/08 05:00:00;;;;;;;30.83;27.23;;;;;;;20.41;66.32;98366.81;8419738;28;20223;-82
2021/06/08 05:04:08;;;;;;;33.33;26.67;;;;;;;20.62;65.25;98370.41;8419651;28;20211;-83
2021/06/08 05:08:13;;;;;;;31.27;27.83;;;;;;;20.65;65.38;98372.78;8419101;28;20297;-83
2021/06/08 05:12:19;;;;;;;32.17;27.97;;;;;;;20.84;64.69;98373.97;8420050;28;20228;-83
2021/06/08 05:16:22;;;;;;;31.37;27.83;;;;;;;20.93;64.34;98375.03;8419033;28;20199;-84
2021/06/08 05:20:24;;;;;;;32.67;29.13;;;;;;;20.81;64.14;98374.19;8419080;28;20199;-84
2021/06/08 05:24:27;;;;;;;32.83;29.33;;;;;;;20.88;64.10;98373.59;8419373;28;20199;-84
2021/06/08 05:28:33;;;;;;;32.37;28.97;;;;;;;20.93;63.54;98378.50;8419970;28;20207;-87
2021/06/08 05:32:37;;;;;;;31.60;28.30;;;;;;;20.94;63.38;98379.31;8431652;28;20230;-85
2021/06/08 05:36:41;;;;;;;31.90;28.70;;;;;;;20.96;63.37;98380.03;8452383;28;20221;-85
2021/06/08 05:40:44;;;;;;;29.83;26.73;;;;;;;21.02;64.28;98388.28;8452199;28;20198;-85
2021/06/08 05:44:48;;;;;;;29.40;26.30;;;;;;;21.40;62.75;98386.97;8451938;28;20206;-84
2021/06/08 05:48:51;;;;;;;31.80;28.33;;;;;;;21.32;62.75;98389.38;8451462;28;20205;-85
2021/06/08 05:52:53;;;;;;;34.37;29.47;;;;;;;21.42;62.34;98392.13;8451581;28;20222;-85
2021/06/08 05:56:56;;;;;;;30.97;26.47;;;;;;;21.67;61.48;98383.88;8453570;28;20469;-84
2021/06/08 06:01:01;;;;;;;29.07;26.13;;;;;;;21.85;61.11;98383.28;8454547;28;20201;-85
2021/06/08 06:05:06;;;;;;;29.80;26.90;;;;;;;22.05;60.51;98390.34;8423267;28;20220;-85
2021/06/08 06:09:11;;;;;;;28.27;25.27;;;;;;;22.17;60.36;98377.91;8351775;28;20207;-85
2021/06/08 06:13:14;;;;;;;29.13;25.93;;;;;;;22.24;59.68;98378.25;8351507;28;20314;-86
2021/06/08 06:17:18;;;;;;;29.37;24.83;;;;;;;22.11;60.60;98383.72;8351405;28;20216;-86
2021/06/08 06:21:21;;;;;;;25.07;21.97;;;;;;;22.43;59.68;98385.44;8351195;28;20204;-84
2021/06/08 06:25:23;;;;;;;26.80;23.77;;;;;;;22.48;59.28;98377.09;8353010;28;20204;-84
2021/06/08 06:29:26;;;;;;;27.43;24.47;;;;;;;22.53;59.49;98381.03;8350749;28;20207;-85
2021/06/08 06:33:29;;;;;;;27.37;23.37;;;;;;;22.76;58.36;98375.53;8351310;28;20232;-85
2021/06/08 06:37:32;;;;;;;23.73;21.23;;;;;;;22.85;57.82;98385.28;8351913;28;20203;-84
2021/06/08 06:41:40;;;;;;;22.40;20.10;;;;;;;23.05;56.16;98377.44;8351462;28;20210;-85
2021/06/08 06:45:42;;;;;;;22.40;20.10;;;;;;;23.12;55.44;98379.38;8350684;28;20200;-84
2021/06/08 06:49:46;;;;;;;20.13;18.13;;;;;;;23.41;55.05;98379.38;8350268;28;20401;-84
2021/06/08 06:53:49;;;;;;;20.17;18.00;;;;;;;23.30;55.57;98383.97;8349599;28;20239;-84
2021/06/08 06:57:53;;;;;;;20.53;16.80;;;;;;;23.20;55.53;98384.81;8349807;28;20204;-85
2021/06/08 07:01:56;;;;;;;16.70;15.00;;;;;;;22.95;54.98;98383.50;8349533;28;20360;-85
2021/06/08 07:06:00;;;;;;;21.93;17.30;;;;;;;23.37;54.08;98387.75;8357089;28;20243;-85
2021/06/08 07:10:03;;;;;;;16.43;14.83;;;;;;;23.54;53.87;98375.63;8382030;28;20202;-84
2021/06/08 07:14:05;;;;;;;18.10;16.20;;;;;;;23.63;53.16;98380.09;8382572;28;20228;-84
2021/06/08 07:18:10;;;;;;;21.37;18.33;;;;;;;23.51;51.56;98382.03;8395113;28;20199;-82
2021/06/08 07:22:14;;;;;;;20.30;17.57;;;;;;;23.47;52.45;98382.44;8416120;28;20210;-82
2021/06/08 07:26:18;;;;;;;19.27;17.37;;;;;;;23.48;53.56;98387.59;8417000;28;20449;-83
2021/06/08 07:30:21;;;;;;;19.00;16.93;;;;;;;23.32;51.83;98385.53;8416269;28;20209;-84
2021/06/08 07:34:28;;;;;;;20.23;18.13;;;;;;;23.21;52.07;98386.47;8416709;28;20225;-83
2021/06/08 07:38:35;;;;;;;23.40;18.17;;;;;;;23.29;52.76;98387.59;8416194;28;20387;-85
2021/06/08 07:42:39;;;;;;;20.37;18.33;;;;;;;23.29;52.56;98392.88;8416731;28;20202;-84
2021/06/08 07:46:42;;;;;;;19.43;17.53;;;;;;;23.66;52.15;98389.53;8416706;28;20268;-82
2021/06/08 07:50:49;;;;;;;20.53;18.47;;;;;;;23.88;51.72;98391.06;8417020;28;20203;-82
2021/06/08 07:54:53;;;;;;;24.17;18.73;;;;;;;24.05;52.69;98386.88;8416858;28;20227;-81
2021/06/08 07:58:56;;;;;;;20.63;18.43;;;;;;;24.37;52.52;98395.25;8416577;28;20196;-83
2021/06/08 08:03:24;;;;;;;19.10;17.20;;;;;;;24.89;51.29;98383.31;8418158;28;20204;-82
2021/06/08 08:07:24;;;;;;;20.03;17.93;;;;;;;24.80;50.90;98392.16;8416120;28;20246;-82
2021/06/08 08:11:28;;;;;;;21.30;19.00;;;;;;;24.87;51.03;98394.06;8416228;28;20213;-82
2021/06/08 08:15:30;;;;;;;20.47;18.27;;;;;;;24.94;51.20;98386.34;8416088;28;20234;-83
2021/06/08 08:19:33;;;;;;;18.40;16.60;;;;;;;24.98;51.11;98379.78;8414658;28;20211;-83
2021/06/08 08:23:37;;;;;;;19.97;16.90;;;;;;;25.43;50.55;98386.84;8421685;28;20203;-82
2021/06/08 08:27:41;;;;;;;17.73;15.93;;;;;;;25.48;50.61;98391.72;8421964;28;20207;-81
2021/06/08 08:31:44;;;;;;;19.57;17.67;;;;;;;25.18;48.63;98388.41;8421579;28;20204;-82
2021/06/08 08:35:46;;;;;;;17.93;15.20;;;;;;;25.48;49.35;98386.41;8422133;28;20203;-82
2021/06/08 08:39:49;;;;;;;19.20;15.70;;;;;;;25.77;48.82;98383.50;8423568;28;20214;-82
2021/06/08 08:43:53;;;;;;;18.33;15.43;;;;;;;26.01;48.15;98387.31;8422276;28;20392;-82
2021/06/08 08:47:56;;;;;;;19.97;16.30;;;;;;;25.42;47.17;98385.22;8421868;28;20217;-81
2021/06/08 08:52:00;;;;;;;21.40;15.30;;;;;;;25.80;48.37;98383.19;8422027;28;20404;-82
2021/06/08 08:56:03;;;;;;;16.07;14.37;;;;;;;25.71;47.29;98384.13;8421898;28;20202;-82
2021/06/08 09:00:08;;;;;;;16.07;14.53;;;;;;;25.62;47.70;98380.56;8421771;28;20343;-82
2021/06/08 09:04:13;;;;;;;15.43;12.73;;;;;;;26.00;47.57;98377.72;8422912;28;20259;-82
2021/06/08 09:08:16;;;;;;;14.80;13.23;;;;;;;26.16;46.54;98380.47;8422479;28;20241;-82
2021/06/08 09:12:20;;;;;;;13.93;12.47;;;;;;;26.69;45.74;98379.44;8422848;28;20559;-82
2021/06/08 09:16:24;;;;;;;15.17;13.63;;;;;;;26.68;43.77;98371.59;8423146;28;20202;-81
2021/06/08 09:20:27;;;;;;;13.27;11.43;;;;;;;27.18;43.99;98370.72;8422538;28;20520;-82
2021/06/08 09:24:31;;;;;;;12.70;11.40;;;;;;;27.82;43.30;98370.13;8420622;28;20606;-82
2021/06/08 09:28:35;;;;;;;21.73;18.50;;;;;;;27.81;46.02;98371.09;8422130;28;20201;-82
2021/06/08 09:32:38;;;;;;;20.37;17.73;;;;;;;27.92;46.12;98367.28;8421390;28;20226;-82
2021/06/08 09:36:41;;;;;;;24.13;21.33;;;;;;;27.79;48.31;98363.28;8420040;28;20201;-81
2021/06/08 09:40:43;;;;;;;24.10;20.40;;;;;;;28.03;47.57;98367.78;8419828;28;20202;-82
2021/06/08 09:44:46;;;;;;;25.80;21.60;;;;;;;28.34;47.03;98364.34;8419066;28;20215;-81
2021/06/08 09:48:54;;;;;;;22.07;19.77;;;;;;;28.59;45.85;98365.09;8419375;28;20306;-83
2021/06/08 09:53:15;;;;;;;23.77;18.80;;;;;;;28.66;46.69;98357.28;8419585;28;20554;-82
2021/06/08 09:57:20;;;;;;;24.30;19.90;;;;;;;28.89;45.55;98359.97;8419446;28;20210;-85
2021/06/08 10:01:24;;;;;;;21.03;18.80;;;;;;;29.05;46.16;98357.22;8415366;28;20191;-81
2021/06/08 10:05:29;;;;;;;23.93;18.97;;;;;;;28.81;45.45;98357.34;8418169;28;20232;-80
2021/06/08 10:09:31;;;;;;;20.33;18.17;;;;;;;29.14;45.32;98355.34;8418854;28;20210;-80
2021/06/08 10:13:34;;;;;;;21.17;19.03;;;;;;;29.15;44.39;98358.81;8419415;28;20231;-81
2021/06/08 10:17:38;;;;;;;22.53;20.17;;;;;;;28.97;44.69;98353.75;8419209;28;20199;-81
2021/06/08 10:21:47;;;;;;;18.60;16.80;;;;;;;29.27;44.48;98360.09;8420272;28;20201;-81
2021/06/08 10:25:51;;;;;;;20.70;18.37;;;;;;;29.09;44.05;98355.00;8418216;28;20217;-83
2021/06/08 10:29:54;;;;;;;21.23;18.40;;;;;;;28.87;44.81;98356.66;8420360;28;20206;-84
2021/06/08 10:33:57;;;;;;;21.67;17.30;;;;;;;29.19;44.66;98352.97;8419353;28;20223;-84
2021/06/08 10:38:08;;;;;;;18.87;16.87;;;;;;;29.20;43.96;98351.94;8419005;28;20199;-83
2021/06/08 10:42:11;;;;;;;18.93;16.93;;;;;;;29.30;44.87;98346.41;8419039;28;20378;-82
2021/06/08 10:46:33;;;;;;;18.23;16.23;;;;;;;29.60;44.08;98347.28;8418805;28;20261;-82
2021/06/08 10:50:37;;;;;;;19.67;17.47;;;;;;;29.41;43.52;98343.28;8419792;28;20198;-83
2021/06/08 10:54:42;;;;;;;18.10;16.30;;;;;;;29.66;43.46;98342.25;8419943;28;20240;-83
2021/06/08 10:58:45;;;;;;;16.10;14.50;;;;;;;29.90;43.21;98335.88;8419003;28;20204;-82
2021/06/08 11:02:48;;;;;;;16.83;14.80;;;;;;;29.93;44.09;98340.84;8419508;28;20207;-84
2021/06/08 11:06:55;;;;;;;17.90;16.03;;;;;;;29.45;44.11;98338.44;8421604;28;20263;-84
2021/06/08 11:10:59;;;;;;;15.90;14.30;;;;;;;29.78;43.81;98331.00;8419720;28;20490;-84
2021/06/08 11:15:21;;;;;;;15.50;13.90;;;;;;;29.72;44.09;98331.69;8418276;28;20447;-86
2021/06/08 11:19:48;;;;;;;16.93;14.70;;;;;;;29.94;43.56;98321.97;8419052;28;20342;-84
2021/06/08 11:23:54;;;;;;;15.37;11.70;;;;;;;30.27;42.07;98318.94;8418873;28;20199;-82
2021/06/08 11:27:59;;;;;;;12.57;11.37;;;;;;;30.55;40.87;98315.63;8417351;28;20202;-84
2021/06/08 11:32:01;;;;;;;13.53;11.73;;;;;;;30.46;40.25;98317.56;8416505;28;20548;-84
2021/06/08 11:36:31;;;;;;;12.77;10.43;;;;;;;29.63;40.85;98312.25;8417874;28;20219;-82
2021/06/08 11:40:58;;;;;;;11.50;10.40;;;;;;;30.23;39.39;98296.28;8372988;28;20206;-81
2021/06/08 11:45:30;;;;;;;16.00;11.80;;;;;;;30.29;40.84;98295.56;8385394;28;20199;-84
2021/06/08 11:49:33;;;;;;;12.43;11.07;;;;;;;30.80;39.92;98287.50;8405811;28;20200;-84
2021/06/08 11:53:57;;;;;;;14.07;11.90;;;;;;;30.66;39.80;98284.91;8419260;28;20218;-85
2021/06/08 11:57:59;;;;;;;12.90;10.80;;;;;;;30.81;41.03;98280.34;8420382;28;20198;-84
2021/06/08 12:02:05;;;;;;;11.90;10.17;;;;;;;29.64;41.37;98283.72;8417406;28;20201;-84
2021/06/08 12:06:08;;;;;;;13.63;10.80;;;;;;;30.20;41.04;98272.63;8416501;28;20234;-86
2021/06/08 12:10:12;;;;;;;11.47;10.37;;;;;;;30.69;39.22;98266.66;8414598;28;20204;-85
2021/06/08 12:14:14;;;;;;;10.70;9.60;;;;;;;29.91;39.27;98265.47;8415692;28;20548;-85
2021/06/08 12:18:23;;;;;;;12.67;9.07;;;;;;;28.85;40.73;98268.06;8415622;28;20378;-85
2021/06/08 12:22:44;;;;;;;9.63;8.63;;;;;;;29.05;40.95;98273.72;8412585;28;20198;-85
2021/06/08 12:26:55;;;;;;;9.93;8.87;;;;;;;29.61;40.42;98252.91;8418950;28;20198;-86
2021/06/08 12:31:10;;;;;;;10.50;9.47;;;;;;;30.24;39.55;98243.72;8417956;28;20209;-86
2021/06/08 12:35:26;;;;;;;11.10;9.43;;;;;;;30.33;37.95;98243.44;8415651;28;20215;-87
2021/06/08 12:39:30;;;;;;;12.37;9.30;;;;;;;30.26;37.21;98245.16;8411569;28;20201;-86
2021/06/08 12:43:41;;;;;;;9.80;8.80;;;;;;;30.71;36.73;98232.56;8414939;28;20225;-87
2021/06/08 12:47:45;;;;;;;10.47;8.40;;;;;;;31.01;36.31;98228.94;8418339;28;20199;-86
2021/06/08 12:51:52;;;;;;;10.87;8.20;;;;;;;30.30;37.51;98219.75;8415034;28;20211;-85
2021/06/08 12:55:56;;;;;;;9.00;7.80;;;;;;;30.75;36.28;98219.63;8414999;28;20227;-86
2021/06/08 13:00:11;;;;;;;8.90;8.00;;;;;;;30.85;35.48;98216.63;8414600;28;20246;-85
2021/06/08 13:04:13;;;;;;;11.77;7.80;;;;;;;29.66;37.46;98215.00;8416306;28;20207;-84
2021/06/08 13:08:18;;;;;;;8.37;7.43;;;;;;;28.92;38.68;98223.69;8416688;28;20232;-84
2021/06/08 13:12:21;;;;;;;8.77;7.77;;;;;;;28.61;40.33;98226.41;8418138;28;20303;-85
2021/06/08 13:16:27;;;;;;;9.30;7.70;;;;;;;28.30;40.50;98211.25;8419606;28;20604;-85
2021/06/08 13:20:33;;;;;;;7.77;6.97;;;;;;;28.21;41.55;98209.63;8418605;28;20376;-81
2021/06/08 13:24:41;;;;;;;8.10;7.23;;;;;;;28.02;40.90;98218.88;8418764;28;20197;-82
2021/06/08 13:28:45;;;;;;;9.10;7.40;;;;;;;27.68;41.89;98227.94;8418732;28;20193;-82
2021/06/08 13:32:56;;;;;;;7.90;7.10;;;;;;;27.45;43.20;98241.13;8417974;28;20195;-83
2021/06/08 13:36:59;;;;;;;11.60;7.30;;;;;;;26.85;40.97;98258.25;8419934;28;20210;-84
2021/06/08 13:41:03;;;;;;;14.00;7.97;;;;;;;25.08;49.31;98240.13;8419702;28;20211;-83
2021/06/08 13:45:09;;;;;;;16.43;7.77;;;;;;;24.64;52.71;98265.72;8421004;28;20255;-85
2021/06/08 13:49:12;;;;;;;17.43;9.47;;;;;;;24.41;55.87;98239.63;8420514;28;20213;-85
2021/06/08 13:53:18;;;;;;;13.30;8.90;;;;;;;24.26;55.52;98249.06;8420868;28;20205;-84
2021/06/08 13:57:27;;;;;;;12.57;8.37;;;;;;;24.19;56.75;98264.69;8419464;28;20202;-83
2021/06/08 14:01:33;;;;;;;11.13;7.43;;;;;;;23.96;55.53;98274.81;8419746;28;20200;-82
2021/06/08 14:05:37;;;;;;;14.00;7.67;;;;;;;23.93;58.42;98285.66;8419494;28;20517;-86
2021/06/08 14:09:41;;;;;;;16.87;8.43;;;;;;;23.88;58.40;98288.75;8418615;28;20210;-84
2021/06/08 14:13:45;;;;;;;13.50;8.13;;;;;;;23.77;58.18;98281.78;8418486;28;20219;-87
2021/06/08 14:17:47;;;;;;;21.30;9.40;;;;;;;23.76;60.33;98269.56;8418013;28;20202;-84
2021/06/08 14:21:50;;;;;;;12.57;8.20;;;;;;;23.80;58.97;98254.28;8419768;28;20203;-84
2021/06/08 14:25:52;;;;;;;14.03;8.50;;;;;;;23.58;60.63;98240.38;8420470;28;20399;-82
2021/06/08 14:29:56;;;;;;;13.10;8.90;;;;;;;23.54;61.13;98233.72;8419367;28;20225;-82
2021/06/08 14:34:10;;;;;;;15.80;9.53;;;;;;;23.55;60.71;98237.19;8420967;28;20227;-82
2021/06/08 14:38:13;;;;;;;18.10;10.37;;;;;;;23.52;61.83;98230.41;8420591;28;20200;-82
2021/06/08 14:42:15;;;;;;;14.07;10.07;;;;;;;23.54;62.40;98243.47;8423403;28;20203;-82
2021/06/08 14:46:19;;;;;;;15.93;10.53;;;;;;;23.53;61.82;98262.94;8420047;28;20202;-84
2021/06/08 14:50:21;;;;;;;11.63;10.23;;;;;;;23.12;61.95;98294.03;8421209;28;20199;-83
2021/06/08 14:54:24;;;;;;;23.00;11.03;;;;;;;23.30;61.31;98302.06;8421985;28;20253;-84
2021/06/08 14:58:26;;;;;;;16.90;10.97;;;;;;;23.20;63.53;98307.34;8420396;28;20199;-83
2021/06/08 15:02:30;;;;;;;13.70;9.63;;;;;;;23.34;59.95;98319.31;8419848;28;20482;-83
2021/06/08 15:06:33;;;;;;;17.47;10.47;;;;;;;22.93;60.25;98359.03;8420328;28;20222;-83
2021/06/08 15:10:36;;;;;;;18.17;10.47;;;;;;;22.92;61.70;98391.66;8419405;28;20199;-83
2021/06/08 15:14:39;;;;;;;21.27;12.40;;;;;;;22.91;63.98;98415.59;8419259;28;20238;-83
2021/06/08 15:18:45;;;;;;;16.03;9.07;;;;;;;22.51;61.50;98427.81;8417792;28;20370;-83
2021/06/08 15:22:47;;;;;;;7.37;5.30;;;;;;;22.27;60.13;98437.84;8418712;28;20206;-83
2021/06/08 15:26:54;;;;;;;6.20;4.40;;;;;;;21.82;60.81;98447.66;8419172;28;20455;-83
2021/06/08 15:30:57;;;;;;;5.17;3.83;;;;;;;21.96;59.78;98429.84;8418896;28;20199;-83
2021/06/08 15:35:02;;;;;;;6.87;3.63;;;;;;;21.93;60.33;98432.72;8418049;28;20259;-83
2021/06/08 15:39:05;;;;;;;8.50;4.30;;;;;;;21.88;61.83;98432.31;8417638;28;20524;-83
2021/06/08 15:43:08;;;;;;;5.50;4.57;;;;;;;21.94;60.56;98419.44;8418734;28;20202;-83
2021/06/08 15:47:11;;;;;;;8.13;4.60;;;;;;;21.93;61.60;98425.66;8418531;28;20205;-82
2021/06/08 15:51:15;;;;;;;7.17;4.27;;;;;;;21.90;61.54;98418.03;8418474;28;20206;-84
2021/06/08 15:55:18;;;;;;;7.10;5.07;;;;;;;21.83;62.17;98420.31;8418097;28;20240;-82
2021/06/08 15:59:20;;;;;;;8.40;4.67;;;;;;;21.79;62.82;98424.19;8418335;28;20198;-83
2021/06/08 16:03:22;;;;;;;5.57;4.30;;;;;;;21.73;62.69;98421.22;8419217;28;20191;-83
2021/06/08 16:07:26;;;;;;;8.07;5.20;;;;;;;21.60;62.90;98408.22;8419392;28;20233;-83
2021/06/08 16:11:28;;;;;;;7.87;5.70;;;;;;;21.67;62.73;98404.13;8417831;28;20203;-83
2021/06/08 16:15:31;;;;;;;9.93;5.87;;;;;;;21.69;63.12;98393.47;8418529;28;20222;-83
2021/06/08 16:19:33;;;;;;;10.30;6.50;;;;;;;21.57;63.50;98379.47;8418803;28;20195;-83
2021/06/08 16:23:37;;;;;;;10.13;7.77;;;;;;;21.59;64.03;98377.56;8418129;28;20197;-83
2021/06/08 16:27:40;;;;;;;10.77;7.90;;;;;;;21.49;63.88;98369.59;8418356;28;20482;-83
2021/06/08 16:31:43;;;;;;;9.57;8.40;;;;;;;21.31;64.95;98363.19;8415651;28;20207;-84
2021/06/08 16:35:45;;;;;;;13.20;7.90;;;;;;;21.23;64.83;98363.81;8413435;28;20224;-83
2021/06/08 16:39:49;;;;;;;13.67;9.00;;;;;;;21.36;65.36;98361.84;8416456;28;20205;-83
2021/06/08 16:43:51;;;;;;;12.23;8.27;;;;;;;21.29;65.20;98350.97;8422867;28;20210;-83
2021/06/08 16:47:54;;;;;;;12.00;8.10;;;;;;;21.35;64.74;98333.81;8422925;28;20210;-85
2021/06/08 16:56:19;;;;;;;10.80;8.17;;;;;;;21.35;64.69;98325.09;8425786;28;20442;-84
2021/06/08 17:00:23;;;;;;;8.90;7.63;;;;;;;21.34;64.46;98318.13;8424211;28;20199;-87
2021/06/08 17:04:25;;;;;;;9.83;7.37;;;;;;;21.40;64.59;98323.75;8424896;28;20539;-87
2021/06/08 17:08:29;;;;;;;9.63;7.37;;;;;;;21.29;64.75;98327.25;8423770;28;20242;-90
2021/06/08 17:12:33;;;;;;;12.73;8.70;;;;;;;21.20;65.74;98317.47;8423754;28;20206;-85
2021/06/08 17:16:37;;;;;;;14.40;10.27;;;;;;;21.17;66.30;98312.47;8424011;28;20232;-86
2021/06/08 17:20:40;;;;;;;12.87;9.20;;;;;;;21.30;65.65;98304.38;8424010;28;20196;-84
2021/06/08 17:24:43;;;;;;;9.97;8.90;;;;;;;21.37;65.43;98296.81;8421705;28;20198;-84
2021/06/08 17:28:47;;;;;;;9.07;8.07;;;;;;;21.34;65.31;98286.53;8424323;28;20209;-85
2021/06/08 17:32:49;;;;;;;9.93;7.40;;;;;;;21.30;65.80;98285.94;8421051;28;20221;-85
2021/06/08 17:36:51;;;;;;;8.03;7.03;;;;;;;21.36;64.72;98289.88;8421254;28;20221;-85
2021/06/08 17:40:55;;;;;;;11.90;7.70;;;;;;;21.12;65.63;98280.41;8420941;28;20211;-85
2021/06/08 17:44:59;;;;;;;9.87;7.87;;;;;;;21.15;66.03;98282.81;8421801;28;20402;-84
2021/06/08 17:49:02;;;;;;;10.47;7.33;;;;;;;21.21;65.15;98284.06;8420959;28;20390;-85
2021/06/08 17:53:06;;;;;;;9.23;7.10;;;;;;;21.01;65.14;98278.66;8420919;28;20425;-85
2021/06/08 17:57:09;;;;;;;8.63;7.00;;;;;;;20.98;65.56;98284.19;8420937;28;20230;-85
2021/06/08 18:01:13;;;;;;;9.80;7.80;;;;;;;20.88;65.84;98283.25;8420073;28;20195;-85
2021/06/08 18:05:15;;;;;;;12.17;8.10;;;;;;;20.96;66.42;98285.25;8421124;28;20483;-85
2021/06/08 18:09:18;;;;;;;9.47;6.90;;;;;;;21.04;65.85;98290.75;8420199;28;20392;-85
2021/06/08 18:13:20;;;;;;;12.53;7.63;;;;;;;21.06;65.32;98283.56;8422820;28;20219;-85
2021/06/08 18:17:25;;;;;;;10.77;8.30;;;;;;;20.97;65.89;98293.03;8427396;28;20226;-84
2021/06/08 18:21:28;;;;;;;13.37;8.00;;;;;;;20.93;65.61;98309.22;8419535;28;20221;-85
2021/06/08 18:25:32;;;;;;;12.03;8.87;;;;;;;20.86;65.24;98312.34;8421537;28;20218;-85
2021/06/08 18:29:35;;;;;;;11.80;8.30;;;;;;;20.81;65.97;98313.66;8421393;28;20273;-85
2021/06/08 18:33:38;;;;;;;10.00;9.00;;;;;;;20.95;64.84;98310.75;8418226;28;20199;-86
2021/06/08 18:37:41;;;;;;;11.20;8.70;;;;;;;20.79;65.87;98321.72;8419365;28;20230;-84
2021/06/08 18:41:43;;;;;;;12.73;8.23;;;;;;;20.79;66.14;98319.09;8418886;28;20377;-86
2021/06/08 18:45:46;;;;;;;10.23;8.17;;;;;;;20.77;65.15;98320.13;8420502;28;20212;-85
2021/06/08 18:49:49;;;;;;;12.90;8.10;;;;;;;20.81;65.12;98324.19;8403448;28;20441;-86
2021/06/08 18:53:52;;;;;;;11.23;8.23;;;;;;;20.84;65.48;98330.06;8420403;28;20217;-85
2021/06/08 18:57:59;;;;;;;8.50;7.70;;;;;;;20.85;65.18;98337.00;8420405;28;20226;-86